sensor_id;sensor_type;location;lat;lon;timestamp;P1;durP1;ratioP1;P2;durP2;ratioP2
4756;SDS011;2392;52.578;13.426;2022-11-23T00:01:27;43.83;;;23.83;;
4756;SDS011;2392;52.578;13.426;2022-11-23T00:03:57;41.37;;;22.77;;
4756;SDS011;2392;52.578;13.426;2022-11-23T00:06:27;40.27;;;22.30;;
4756;SDS011;2392;52.578;13.426;2022-11-23T00:08:54;47.30;;;22.30;;
4756;SDS011;2392;52.578;13.426;2022-11-23T00:11:21;42.37;;;24.20;;
4756;SDS011;2392;52.578;13.426;2022-11-23T00:13:49;49.83;;;23.97;;
4756;SDS011;2392;52.578;13.426;2022-11-23T00:16:19;43.33;;;22.50;;
4756;SDS011;2392;52.578;13.426;2022-11-23T00:18:47;45.47;;;23.40;;
4756;SDS011;2392;52.578;13.426;2022-11-23T00:21:17;41.97;;;22.60;;
4756;SDS011;2392;52.578;13.426;2022-11-23T00:23:45;49.33;;;24.90;;
4756;SDS011;2392;52.578;13.426;2022-11-23T00:26:12;44.77;;;24.97;;
4756;SDS011;2392;52.578;13.426;2022-11-23T00:28:40;44.83;;;23.40;;
4756;SDS011;2392;52.578;13.426;2022-11-23T00:31:07;52.80;;;26.27;;
4756;SDS011;2392;52.578;13.426;2022-11-23T00:33:38;52.97;;;27.80;;
4756;SDS011;2392;52.578;13.426;2022-11-23T00:36:05;51.77;;;28.60;;
4756;SDS011;2392;52.578;13.426;2022-11-23T00:38:35;55.97;;;29.87;;
4756;SDS011;2392;52.578;13.426;2022-11-23T00:41:03;67.60;;;32.67;;
4756;SDS011;2392;52.578;13.426;2022-11-23T00:43:32;50.97;;;26.00;;
4756;SDS011;2392;52.578;13.426;2022-11-23T00:46:06;55.03;;;27.90;;
4756;SDS011;2392;52.578;13.426;2022-11-23T00:48:34;47.73;;;24.50;;
4756;SDS011;2392;52.578;13.426;2022-11-23T00:51:03;51.13;;;26.30;;
4756;SDS011;2392;52.578;13.426;2022-11-23T00:53:32;47.53;;;26.73;;
4756;SDS011;2392;52.578;13.426;2022-11-23T00:55:59;51.83;;;25.73;;
4756;SDS011;2392;52.578;13.426;2022-11-23T00:58:26;45.57;;;24.63;;
4756;SDS011;2392;52.578;13.426;2022-11-23T01:01:00;47.17;;;24.97;;
4756;SDS011;2392;52.578;13.426;2022-11-23T01:03:32;45.00;;;23.00;;
4756;SDS011;2392;52.578;13.426;2022-11-23T01:06:08;43.90;;;23.07;;
4756;SDS011;2392;52.578;13.426;2022-11-23T01:08:37;46.90;;;24.10;;
4756;SDS011;2392;52.578;13.426;2022-11-23T01:11:05;43.00;;;24.03;;
4756;SDS011;2392;52.578;13.426;2022-11-23T01:13:34;45.80;;;22.50;;
4756;SDS011;2392;52.578;13.426;2022-11-23T01:16:03;40.50;;;21.60;;
4756;SDS011;2392;52.578;13.426;2022-11-23T01:18:30;43.37;;;23.30;;
4756;SDS011;2392;52.578;13.426;2022-11-23T01:20:59;43.53;;;23.63;;
4756;SDS011;2392;52.578;13.426;2022-11-23T01:23:28;40.53;;;21.30;;
4756;SDS011;2392;52.578;13.426;2022-11-23T01:25:55;47.50;;;23.70;;
4756;SDS011;2392;52.578;13.426;2022-11-23T01:28:23;41.67;;;22.20;;
4756;SDS011;2392;52.578;13.426;2022-11-23T01:30:50;46.47;;;22.93;;
4756;SDS011;2392;52.578;13.426;2022-11-23T01:33:17;35.43;;;20.93;;
4756;SDS011;2392;52.578;13.426;2022-11-23T01:35:45;42.37;;;22.70;;
4756;SDS011;2392;52.578;13.426;2022-11-23T01:38:12;39.63;;;21.20;;
4756;SDS011;2392;52.578;13.426;2022-11-23T01:40:41;43.17;;;22.33;;
4756;SDS011;2392;52.578;13.426;2022-11-23T01:43:12;36.90;;;22.10;;
4756;SDS011;2392;52.578;13.426;2022-11-23T01:45:41;43.43;;;21.70;;
4756;SDS011;2392;52.578;13.426;2022-11-23T01:48:11;37.30;;;22.27;;
4756;SDS011;2392;52.578;13.426;2022-11-23T01:50:41;44.00;;;22.33;;
4756;SDS011;2392;52.578;13.426;2022-11-23T01:53:11;46.40;;;22.40;;
4756;SDS011;2392;52.578;13.426;2022-11-23T01:55:39;35.63;;;21.17;;
4756;SDS011;2392;52.578;13.426;2022-11-23T01:58:08;46.20;;;23.40;;
4756;SDS011;2392;52.578;13.426;2022-11-23T02:00:38;42.53;;;22.50;;
4756;SDS011;2392;52.578;13.426;2022-11-23T02:03:06;40.37;;;21.60;;
4756;SDS011;2392;52.578;13.426;2022-11-23T02:05:36;42.70;;;21.87;;
4756;SDS011;2392;52.578;13.426;2022-11-23T02:08:06;42.47;;;21.97;;
4756;SDS011;2392;52.578;13.426;2022-11-23T02:10:35;42.67;;;23.23;;
4756;SDS011;2392;52.578;13.426;2022-11-23T02:13:04;41.17;;;22.23;;
4756;SDS011;2392;52.578;13.426;2022-11-23T02:15:35;43.80;;;23.00;;
4756;SDS011;2392;52.578;13.426;2022-11-23T02:18:03;44.80;;;23.07;;
4756;SDS011;2392;52.578;13.426;2022-11-23T02:20:35;40.63;;;20.60;;
4756;SDS011;2392;52.578;13.426;2022-11-23T02:23:08;41.67;;;23.90;;
4756;SDS011;2392;52.578;13.426;2022-11-23T02:25:51;39.03;;;22.80;;
4756;SDS011;2392;52.578;13.426;2022-11-23T02:28:24;35.33;;;20.20;;
4756;SDS011;2392;52.578;13.426;2022-11-23T02:30:54;42.40;;;22.90;;
4756;SDS011;2392;52.578;13.426;2022-11-23T02:33:22;39.37;;;22.00;;
4756;SDS011;2392;52.578;13.426;2022-11-23T02:35:50;42.90;;;22.53;;
4756;SDS011;2392;52.578;13.426;2022-11-23T02:38:21;37.70;;;21.33;;
4756;SDS011;2392;52.578;13.426;2022-11-23T02:40:49;36.90;;;21.67;;
4756;SDS011;2392;52.578;13.426;2022-11-23T02:43:20;41.87;;;23.67;;
4756;SDS011;2392;52.578;13.426;2022-11-23T02:45:49;35.87;;;20.40;;
4756;SDS011;2392;52.578;13.426;2022-11-23T02:48:17;36.20;;;21.90;;
4756;SDS011;2392;52.578;13.426;2022-11-23T02:50:44;39.07;;;21.60;;
4756;SDS011;2392;52.578;13.426;2022-11-23T02:53:12;42.30;;;22.07;;
4756;SDS011;2392;52.578;13.426;2022-11-23T02:55:39;33.30;;;20.87;;
4756;SDS011;2392;52.578;13.426;2022-11-23T02:58:08;38.17;;;21.23;;
4756;SDS011;2392;52.578;13.426;2022-11-23T03:00:35;37.77;;;21.60;;
4756;SDS011;2392;52.578;13.426;2022-11-23T03:03:02;33.80;;;20.87;;
4756;SDS011;2392;52.578;13.426;2022-11-23T03:05:31;33.47;;;20.33;;
4756;SDS011;2392;52.578;13.426;2022-11-23T03:08:03;36.43;;;21.60;;
4756;SDS011;2392;52.578;13.426;2022-11-23T03:10:31;36.57;;;21.37;;
4756;SDS011;2392;52.578;13.426;2022-11-23T03:12:59;35.07;;;19.00;;
4756;SDS011;2392;52.578;13.426;2022-11-23T03:15:30;40.10;;;22.73;;
4756;SDS011;2392;52.578;13.426;2022-11-23T03:17:58;33.87;;;20.90;;
4756;SDS011;2392;52.578;13.426;2022-11-23T03:20:25;35.10;;;21.30;;
4756;SDS011;2392;52.578;13.426;2022-11-23T03:22:52;39.70;;;22.50;;
4756;SDS011;2392;52.578;13.426;2022-11-23T03:25:22;33.17;;;19.83;;
4756;SDS011;2392;52.578;13.426;2022-11-23T03:27:52;42.37;;;22.17;;
4756;SDS011;2392;52.578;13.426;2022-11-23T03:30:19;44.10;;;21.37;;
4756;SDS011;2392;52.578;13.426;2022-11-23T03:32:49;35.20;;;21.60;;
4756;SDS011;2392;52.578;13.426;2022-11-23T03:35:17;37.30;;;21.17;;
4756;SDS011;2392;52.578;13.426;2022-11-23T03:38:04;35.90;;;21.43;;
4756;SDS011;2392;52.578;13.426;2022-11-23T03:40:32;34.70;;;19.10;;
4756;SDS011;2392;52.578;13.426;2022-11-23T03:43:20;36.17;;;20.10;;
4756;SDS011;2392;52.578;13.426;2022-11-23T03:45:47;33.13;;;18.90;;
4756;SDS011;2392;52.578;13.426;2022-11-23T03:48:15;34.77;;;20.60;;
4756;SDS011;2392;52.578;13.426;2022-11-23T03:50:43;34.17;;;20.33;;
4756;SDS011;2392;52.578;13.426;2022-11-23T03:53:11;37.57;;;21.73;;
4756;SDS011;2392;52.578;13.426;2022-11-23T03:55:38;40.90;;;21.70;;
4756;SDS011;2392;52.578;13.426;2022-11-23T03:58:05;37.10;;;20.27;;
4756;SDS011;2392;52.578;13.426;2022-11-23T04:00:34;33.73;;;20.23;;
4756;SDS011;2392;52.578;13.426;2022-11-23T04:03:02;38.03;;;19.87;;
4756;SDS011;2392;52.578;13.426;2022-11-23T04:05:59;34.60;;;20.87;;
4756;SDS011;2392;52.578;13.426;2022-11-23T04:08:32;37.53;;;21.00;;
4756;SDS011;2392;52.578;13.426;2022-11-23T04:11:05;37.10;;;20.83;;
4756;SDS011;2392;52.578;13.426;2022-11-23T04:13:37;36.60;;;21.03;;
4756;SDS011;2392;52.578;13.426;2022-11-23T04:16:04;32.20;;;17.93;;
4756;SDS011;2392;52.578;13.426;2022-11-23T04:18:32;37.67;;;21.37;;
4756;SDS011;2392;52.578;13.426;2022-11-23T04:21:00;40.83;;;22.60;;
4756;SDS011;2392;52.578;13.426;2022-11-23T04:23:27;33.40;;;20.60;;
4756;SDS011;2392;52.578;13.426;2022-11-23T04:25:55;41.70;;;21.67;;
4756;SDS011;2392;52.578;13.426;2022-11-23T04:28:23;35.27;;;19.00;;
4756;SDS011;2392;52.578;13.426;2022-11-23T04:30:51;33.87;;;20.10;;
4756;SDS011;2392;52.578;13.426;2022-11-23T04:33:18;34.83;;;20.90;;
4756;SDS011;2392;52.578;13.426;2022-11-23T04:35:45;35.33;;;18.57;;
4756;SDS011;2392;52.578;13.426;2022-11-23T04:38:14;34.13;;;20.70;;
4756;SDS011;2392;52.578;13.426;2022-11-23T04:40:41;33.20;;;20.47;;
4756;SDS011;2392;52.578;13.426;2022-11-23T04:43:09;30.70;;;18.83;;
4756;SDS011;2392;52.578;13.426;2022-11-23T04:45:37;31.27;;;18.60;;
4756;SDS011;2392;52.578;13.426;2022-11-23T04:48:08;42.10;;;20.07;;
4756;SDS011;2392;52.578;13.426;2022-11-23T04:50:36;35.60;;;20.33;;
4756;SDS011;2392;52.578;13.426;2022-11-23T04:53:03;31.50;;;19.00;;
4756;SDS011;2392;52.578;13.426;2022-11-23T04:55:40;35.87;;;19.73;;
4756;SDS011;2392;52.578;13.426;2022-11-23T04:58:09;43.33;;;21.97;;
4756;SDS011;2392;52.578;13.426;2022-11-23T05:00:36;37.50;;;19.47;;
4756;SDS011;2392;52.578;13.426;2022-11-23T05:03:04;32.70;;;20.00;;
4756;SDS011;2392;52.578;13.426;2022-11-23T05:05:35;36.43;;;19.33;;
4756;SDS011;2392;52.578;13.426;2022-11-23T05:08:03;34.07;;;19.70;;
4756;SDS011;2392;52.578;13.426;2022-11-23T05:10:46;34.90;;;19.60;;
4756;SDS011;2392;52.578;13.426;2022-11-23T05:13:13;35.37;;;20.23;;
4756;SDS011;2392;52.578;13.426;2022-11-23T05:15:41;31.73;;;18.93;;
4756;SDS011;2392;52.578;13.426;2022-11-23T05:18:12;35.53;;;19.50;;
4756;SDS011;2392;52.578;13.426;2022-11-23T05:20:40;33.03;;;19.63;;
4756;SDS011;2392;52.578;13.426;2022-11-23T05:23:08;34.43;;;20.03;;
4756;SDS011;2392;52.578;13.426;2022-11-23T05:25:38;31.83;;;18.67;;
4756;SDS011;2392;52.578;13.426;2022-11-23T05:28:10;39.70;;;21.40;;
4756;SDS011;2392;52.578;13.426;2022-11-23T05:30:41;35.63;;;20.83;;
4756;SDS011;2392;52.578;13.426;2022-11-23T05:33:08;35.00;;;19.20;;
4756;SDS011;2392;52.578;13.426;2022-11-23T05:35:37;35.13;;;19.93;;
4756;SDS011;2392;52.578;13.426;2022-11-23T05:38:04;35.10;;;19.30;;
4756;SDS011;2392;52.578;13.426;2022-11-23T05:40:32;33.03;;;19.20;;
4756;SDS011;2392;52.578;13.426;2022-11-23T05:43:01;33.30;;;19.17;;
4756;SDS011;2392;52.578;13.426;2022-11-23T05:45:30;33.60;;;19.40;;
4756;SDS011;2392;52.578;13.426;2022-11-23T05:47:58;38.63;;;20.67;;
4756;SDS011;2392;52.578;13.426;2022-11-23T05:50:37;38.90;;;21.83;;
4756;SDS011;2392;52.578;13.426;2022-11-23T05:53:23;31.70;;;19.03;;
4756;SDS011;2392;52.578;13.426;2022-11-23T05:55:57;35.67;;;18.53;;
4756;SDS011;2392;52.578;13.426;2022-11-23T05:58:27;36.60;;;21.10;;
4756;SDS011;2392;52.578;13.426;2022-11-23T06:00:57;30.50;;;18.40;;
4756;SDS011;2392;52.578;13.426;2022-11-23T06:03:26;36.97;;;21.17;;
4756;SDS011;2392;52.578;13.426;2022-11-23T06:05:53;35.37;;;21.20;;
4756;SDS011;2392;52.578;13.426;2022-11-23T06:08:27;41.20;;;24.17;;
4756;SDS011;2392;52.578;13.426;2022-11-23T06:10:54;38.63;;;23.33;;
4756;SDS011;2392;52.578;13.426;2022-11-23T06:13:21;43.43;;;24.50;;
4756;SDS011;2392;52.578;13.426;2022-11-23T06:15:48;35.73;;;21.83;;
4756;SDS011;2392;52.578;13.426;2022-11-23T06:18:23;40.97;;;28.33;;
4756;SDS011;2392;52.578;13.426;2022-11-23T06:20:50;40.90;;;27.30;;
4756;SDS011;2392;52.578;13.426;2022-11-23T06:23:17;35.17;;;20.53;;
4756;SDS011;2392;52.578;13.426;2022-11-23T06:25:44;31.43;;;19.60;;
4756;SDS011;2392;52.578;13.426;2022-11-23T06:28:16;29.97;;;17.97;;
4756;SDS011;2392;52.578;13.426;2022-11-23T06:30:46;38.57;;;21.00;;
4756;SDS011;2392;52.578;13.426;2022-11-23T06:33:13;34.17;;;19.83;;
4756;SDS011;2392;52.578;13.426;2022-11-23T06:35:52;39.53;;;19.10;;
4756;SDS011;2392;52.578;13.426;2022-11-23T06:38:20;33.13;;;18.50;;
4756;SDS011;2392;52.578;13.426;2022-11-23T06:40:56;31.23;;;17.27;;
4756;SDS011;2392;52.578;13.426;2022-11-23T06:43:24;36.80;;;19.03;;
4756;SDS011;2392;52.578;13.426;2022-11-23T06:45:52;30.30;;;17.80;;
4756;SDS011;2392;52.578;13.426;2022-11-23T06:48:24;30.40;;;19.10;;
4756;SDS011;2392;52.578;13.426;2022-11-23T06:50:54;30.30;;;17.93;;
4756;SDS011;2392;52.578;13.426;2022-11-23T06:53:23;35.33;;;17.63;;
4756;SDS011;2392;52.578;13.426;2022-11-23T06:55:57;31.50;;;17.53;;
4756;SDS011;2392;52.578;13.426;2022-11-23T06:58:26;29.50;;;17.00;;
4756;SDS011;2392;52.578;13.426;2022-11-23T07:00:53;32.20;;;18.30;;
4756;SDS011;2392;52.578;13.426;2022-11-23T07:03:24;33.80;;;18.80;;
4756;SDS011;2392;52.578;13.426;2022-11-23T07:06:02;28.03;;;17.70;;
4756;SDS011;2392;52.578;13.426;2022-11-23T07:08:31;29.87;;;18.10;;
4756;SDS011;2392;52.578;13.426;2022-11-23T07:11:07;28.77;;;17.83;;
4756;SDS011;2392;52.578;13.426;2022-11-23T07:13:37;34.80;;;18.97;;
4756;SDS011;2392;52.578;13.426;2022-11-23T07:16:04;33.47;;;19.00;;
4756;SDS011;2392;52.578;13.426;2022-11-23T07:18:32;32.40;;;18.13;;
4756;SDS011;2392;52.578;13.426;2022-11-23T07:21:02;29.03;;;19.00;;
4756;SDS011;2392;52.578;13.426;2022-11-23T07:23:29;30.70;;;18.33;;
4756;SDS011;2392;52.578;13.426;2022-11-23T07:25:56;32.57;;;18.33;;
4756;SDS011;2392;52.578;13.426;2022-11-23T07:28:23;33.10;;;19.73;;
4756;SDS011;2392;52.578;13.426;2022-11-23T07:30:50;33.60;;;20.00;;
4756;SDS011;2392;52.578;13.426;2022-11-23T07:33:19;41.47;;;20.47;;
4756;SDS011;2392;52.578;13.426;2022-11-23T07:35:47;41.53;;;21.50;;
4756;SDS011;2392;52.578;13.426;2022-11-23T07:38:15;35.67;;;21.33;;
4756;SDS011;2392;52.578;13.426;2022-11-23T07:40:42;40.03;;;21.60;;
4756;SDS011;2392;52.578;13.426;2022-11-23T07:43:22;46.07;;;22.80;;
4756;SDS011;2392;52.578;13.426;2022-11-23T07:45:49;44.27;;;21.80;;
4756;SDS011;2392;52.578;13.426;2022-11-23T07:48:16;37.53;;;20.70;;
4756;SDS011;2392;52.578;13.426;2022-11-23T07:50:43;34.70;;;20.60;;
4756;SDS011;2392;52.578;13.426;2022-11-23T07:53:10;35.07;;;20.90;;
4756;SDS011;2392;52.578;13.426;2022-11-23T07:55:38;42.60;;;22.70;;
4756;SDS011;2392;52.578;13.426;2022-11-23T07:58:06;34.27;;;21.17;;
4756;SDS011;2392;52.578;13.426;2022-11-23T08:00:32;37.77;;;21.17;;
4756;SDS011;2392;52.578;13.426;2022-11-23T08:02:59;35.30;;;20.43;;
4756;SDS011;2392;52.578;13.426;2022-11-23T08:05:26;39.47;;;21.90;;
4756;SDS011;2392;52.578;13.426;2022-11-23T08:07:57;41.13;;;20.63;;
4756;SDS011;2392;52.578;13.426;2022-11-23T08:10:24;35.13;;;21.50;;
4756;SDS011;2392;52.578;13.426;2022-11-23T08:12:53;35.10;;;19.70;;
4756;SDS011;2392;52.578;13.426;2022-11-23T08:15:22;33.47;;;20.13;;
4756;SDS011;2392;52.578;13.426;2022-11-23T08:17:52;35.10;;;19.77;;
4756;SDS011;2392;52.578;13.426;2022-11-23T08:20:20;30.83;;;19.47;;
4756;SDS011;2392;52.578;13.426;2022-11-23T08:22:47;31.07;;;18.47;;
4756;SDS011;2392;52.578;13.426;2022-11-23T08:25:14;30.20;;;18.43;;
4756;SDS011;2392;52.578;13.426;2022-11-23T08:27:41;30.80;;;17.20;;
4756;SDS011;2392;52.578;13.426;2022-11-23T08:30:10;26.07;;;16.73;;
4756;SDS011;2392;52.578;13.426;2022-11-23T08:32:38;26.13;;;16.20;;
4756;SDS011;2392;52.578;13.426;2022-11-23T08:35:05;26.70;;;16.23;;
4756;SDS011;2392;52.578;13.426;2022-11-23T08:37:33;31.37;;;18.27;;
4756;SDS011;2392;52.578;13.426;2022-11-23T08:40:00;30.17;;;18.20;;
4756;SDS011;2392;52.578;13.426;2022-11-23T08:42:27;26.87;;;17.77;;
4756;SDS011;2392;52.578;13.426;2022-11-23T08:44:54;26.87;;;16.97;;
4756;SDS011;2392;52.578;13.426;2022-11-23T08:47:25;28.70;;;17.60;;
4756;SDS011;2392;52.578;13.426;2022-11-23T08:49:52;40.93;;;18.47;;
4756;SDS011;2392;52.578;13.426;2022-11-23T08:52:19;24.97;;;17.27;;
4756;SDS011;2392;52.578;13.426;2022-11-23T08:54:46;25.73;;;16.90;;
4756;SDS011;2392;52.578;13.426;2022-11-23T08:57:13;31.83;;;18.50;;
4756;SDS011;2392;52.578;13.426;2022-11-23T08:59:40;29.07;;;17.10;;
4756;SDS011;2392;52.578;13.426;2022-11-23T09:02:07;29.20;;;16.33;;
4756;SDS011;2392;52.578;13.426;2022-11-23T09:04:39;25.83;;;16.20;;
4756;SDS011;2392;52.578;13.426;2022-11-23T09:07:07;29.40;;;17.70;;
4756;SDS011;2392;52.578;13.426;2022-11-23T09:09:34;23.63;;;17.10;;
4756;SDS011;2392;52.578;13.426;2022-11-23T09:12:01;26.17;;;17.47;;
4756;SDS011;2392;52.578;13.426;2022-11-23T09:14:28;26.33;;;18.63;;
4756;SDS011;2392;52.578;13.426;2022-11-23T09:16:55;28.47;;;18.40;;
4756;SDS011;2392;52.578;13.426;2022-11-23T09:19:22;28.57;;;18.80;;
4756;SDS011;2392;52.578;13.426;2022-11-23T09:21:51;29.77;;;17.70;;
4756;SDS011;2392;52.578;13.426;2022-11-23T09:24:18;29.13;;;20.30;;
4756;SDS011;2392;52.578;13.426;2022-11-23T09:26:46;24.47;;;17.07;;
4756;SDS011;2392;52.578;13.426;2022-11-23T09:29:13;26.63;;;16.03;;
4756;SDS011;2392;52.578;13.426;2022-11-23T09:31:40;28.00;;;17.90;;
4756;SDS011;2392;52.578;13.426;2022-11-23T09:34:07;27.13;;;17.10;;
4756;SDS011;2392;52.578;13.426;2022-11-23T09:36:37;26.60;;;16.57;;
4756;SDS011;2392;52.578;13.426;2022-11-23T09:39:05;25.77;;;17.27;;
4756;SDS011;2392;52.578;13.426;2022-11-23T09:41:42;26.00;;;17.23;;
4756;SDS011;2392;52.578;13.426;2022-11-23T09:44:32;26.53;;;17.40;;
4756;SDS011;2392;52.578;13.426;2022-11-23T09:47:12;26.30;;;15.17;;
4756;SDS011;2392;52.578;13.426;2022-11-23T09:49:52;26.43;;;15.50;;
4756;SDS011;2392;52.578;13.426;2022-11-23T09:52:27;25.33;;;16.00;;
4756;SDS011;2392;52.578;13.426;2022-11-23T09:54:58;28.17;;;16.80;;
4756;SDS011;2392;52.578;13.426;2022-11-23T09:57:28;25.40;;;16.33;;
4756;SDS011;2392;52.578;13.426;2022-11-23T09:59:58;24.07;;;16.10;;
4756;SDS011;2392;52.578;13.426;2022-11-23T10:02:29;22.80;;;16.23;;
4756;SDS011;2392;52.578;13.426;2022-11-23T10:05:00;24.80;;;16.27;;
4756;SDS011;2392;52.578;13.426;2022-11-23T10:07:37;22.00;;;16.10;;
4756;SDS011;2392;52.578;13.426;2022-11-23T10:10:17;22.80;;;16.13;;
4756;SDS011;2392;52.578;13.426;2022-11-23T10:12:57;23.50;;;15.77;;
4756;SDS011;2392;52.578;13.426;2022-11-23T10:15:32;28.90;;;17.90;;
4756;SDS011;2392;52.578;13.426;2022-11-23T10:18:08;24.47;;;16.00;;
4756;SDS011;2392;52.578;13.426;2022-11-23T10:20:51;29.57;;;18.77;;
4756;SDS011;2392;52.578;13.426;2022-11-23T10:23:28;25.87;;;15.90;;
4756;SDS011;2392;52.578;13.426;2022-11-23T10:26:18;21.33;;;15.90;;
4756;SDS011;2392;52.578;13.426;2022-11-23T10:28:46;25.40;;;17.57;;
4756;SDS011;2392;52.578;13.426;2022-11-23T10:31:15;27.80;;;15.80;;
4756;SDS011;2392;52.578;13.426;2022-11-23T10:33:53;24.90;;;18.03;;
4756;SDS011;2392;52.578;13.426;2022-11-23T10:36:23;22.60;;;16.00;;
4756;SDS011;2392;52.578;13.426;2022-11-23T10:38:52;25.90;;;16.43;;
4756;SDS011;2392;52.578;13.426;2022-11-23T10:41:24;20.37;;;15.80;;
4756;SDS011;2392;52.578;13.426;2022-11-23T10:43:54;23.97;;;16.13;;
4756;SDS011;2392;52.578;13.426;2022-11-23T10:46:28;20.70;;;16.40;;
4756;SDS011;2392;52.578;13.426;2022-11-23T10:49:07;22.77;;;16.07;;
4756;SDS011;2392;52.578;13.426;2022-11-23T10:51:39;21.03;;;16.17;;
4756;SDS011;2392;52.578;13.426;2022-11-23T10:54:16;20.03;;;16.40;;
4756;SDS011;2392;52.578;13.426;2022-11-23T10:56:48;22.93;;;16.00;;
4756;SDS011;2392;52.578;13.426;2022-11-23T10:59:27;21.50;;;16.17;;
4756;SDS011;2392;52.578;13.426;2022-11-23T11:02:10;20.57;;;16.03;;
4756;SDS011;2392;52.578;13.426;2022-11-23T11:04:41;19.17;;;16.13;;
4756;SDS011;2392;52.578;13.426;2022-11-23T11:07:09;20.30;;;15.93;;
4756;SDS011;2392;52.578;13.426;2022-11-23T11:09:48;22.50;;;15.57;;
4756;SDS011;2392;52.578;13.426;2022-11-23T11:12:18;21.57;;;16.10;;
4756;SDS011;2392;52.578;13.426;2022-11-23T11:14:55;19.73;;;15.87;;
4756;SDS011;2392;52.578;13.426;2022-11-23T11:17:27;24.70;;;15.60;;
4756;SDS011;2392;52.578;13.426;2022-11-23T11:19:55;21.77;;;15.20;;
4756;SDS011;2392;52.578;13.426;2022-11-23T11:22:31;22.20;;;15.07;;
4756;SDS011;2392;52.578;13.426;2022-11-23T11:25:00;24.97;;;16.27;;
4756;SDS011;2392;52.578;13.426;2022-11-23T11:27:30;19.30;;;14.57;;
4756;SDS011;2392;52.578;13.426;2022-11-23T11:30:01;25.97;;;16.47;;
4756;SDS011;2392;52.578;13.426;2022-11-23T11:32:32;25.03;;;15.73;;
4756;SDS011;2392;52.578;13.426;2022-11-23T11:35:11;22.70;;;16.40;;
4756;SDS011;2392;52.578;13.426;2022-11-23T11:37:41;28.13;;;18.10;;
4756;SDS011;2392;52.578;13.426;2022-11-23T11:40:16;23.63;;;16.03;;
4756;SDS011;2392;52.578;13.426;2022-11-23T11:42:49;24.37;;;17.17;;
4756;SDS011;2392;52.578;13.426;2022-11-23T11:45:21;21.60;;;16.40;;
4756;SDS011;2392;52.578;13.426;2022-11-23T11:47:52;21.20;;;16.07;;
4756;SDS011;2392;52.578;13.426;2022-11-23T11:50:23;26.23;;;16.27;;
4756;SDS011;2392;52.578;13.426;2022-11-23T11:52:55;22.93;;;14.63;;
4756;SDS011;2392;52.578;13.426;2022-11-23T11:55:26;23.30;;;15.43;;
4756;SDS011;2392;52.578;13.426;2022-11-23T11:58:02;20.60;;;15.00;;
4756;SDS011;2392;52.578;13.426;2022-11-23T12:00:35;25.23;;;16.10;;
4756;SDS011;2392;52.578;13.426;2022-11-23T12:03:05;20.03;;;15.37;;
4756;SDS011;2392;52.578;13.426;2022-11-23T12:05:42;24.27;;;15.57;;
4756;SDS011;2392;52.578;13.426;2022-11-23T12:08:13;19.10;;;14.50;;
4756;SDS011;2392;52.578;13.426;2022-11-23T12:10:45;20.77;;;14.33;;
4756;SDS011;2392;52.578;13.426;2022-11-23T12:13:18;18.20;;;13.43;;
4756;SDS011;2392;52.578;13.426;2022-11-23T12:15:48;17.87;;;12.90;;
4756;SDS011;2392;52.578;13.426;2022-11-23T12:18:29;29.37;;;17.43;;
4756;SDS011;2392;52.578;13.426;2022-11-23T12:21:15;37.47;;;20.47;;
4756;SDS011;2392;52.578;13.426;2022-11-23T12:23:54;29.87;;;17.10;;
4756;SDS011;2392;52.578;13.426;2022-11-23T12:26:28;26.83;;;15.73;;
4756;SDS011;2392;52.578;13.426;2022-11-23T12:29:17;30.63;;;16.73;;
4756;SDS011;2392;52.578;13.426;2022-11-23T12:31:54;24.23;;;16.07;;
4756;SDS011;2392;52.578;13.426;2022-11-23T12:34:34;25.80;;;16.27;;
4756;SDS011;2392;52.578;13.426;2022-11-23T12:37:32;30.30;;;15.33;;
4756;SDS011;2392;52.578;13.426;2022-11-23T12:40:13;18.53;;;12.30;;
4756;SDS011;2392;52.578;13.426;2022-11-23T12:42:49;20.40;;;13.93;;
4756;SDS011;2392;52.578;13.426;2022-11-23T12:45:26;19.53;;;14.50;;
4756;SDS011;2392;52.578;13.426;2022-11-23T12:48:17;22.80;;;15.33;;
4756;SDS011;2392;52.578;13.426;2022-11-23T12:50:54;22.10;;;14.90;;
4756;SDS011;2392;52.578;13.426;2022-11-23T12:53:29;24.17;;;15.53;;
4756;SDS011;2392;52.578;13.426;2022-11-23T12:56:09;21.80;;;14.90;;
4756;SDS011;2392;52.578;13.426;2022-11-23T12:58:44;24.87;;;14.97;;
4756;SDS011;2392;52.578;13.426;2022-11-23T13:01:15;21.43;;;14.60;;
4756;SDS011;2392;52.578;13.426;2022-11-23T13:03:51;26.43;;;15.97;;
4756;SDS011;2392;52.578;13.426;2022-11-23T13:06:38;22.50;;;14.10;;
4756;SDS011;2392;52.578;13.426;2022-11-23T13:09:31;21.20;;;14.57;;
4756;SDS011;2392;52.578;13.426;2022-11-23T13:12:07;20.77;;;14.87;;
4756;SDS011;2392;52.578;13.426;2022-11-23T13:14:48;21.60;;;14.63;;
4756;SDS011;2392;52.578;13.426;2022-11-23T13:17:28;22.20;;;14.67;;
4756;SDS011;2392;52.578;13.426;2022-11-23T13:20:08;23.70;;;15.33;;
4756;SDS011;2392;52.578;13.426;2022-11-23T13:22:46;16.60;;;12.77;;
4756;SDS011;2392;52.578;13.426;2022-11-23T13:25:22;21.40;;;14.20;;
4756;SDS011;2392;52.578;13.426;2022-11-23T13:27:53;19.30;;;13.93;;
4756;SDS011;2392;52.578;13.426;2022-11-23T13:30:26;20.13;;;13.63;;
4756;SDS011;2392;52.578;13.426;2022-11-23T13:33:00;21.10;;;13.20;;
4756;SDS011;2392;52.578;13.426;2022-11-23T13:38:26;20.20;;;13.00;;
4756;SDS011;2392;52.578;13.426;2022-11-23T13:41:14;20.17;;;13.70;;
4756;SDS011;2392;52.578;13.426;2022-11-23T13:44:22;20.07;;;14.40;;
4756;SDS011;2392;52.578;13.426;2022-11-23T13:49:47;18.53;;;13.33;;
4756;SDS011;2392;52.578;13.426;2022-11-23T13:52:21;20.37;;;14.00;;
4756;SDS011;2392;52.578;13.426;2022-11-23T13:55:16;27.20;;;14.40;;
4756;SDS011;2392;52.578;13.426;2022-11-23T14:00:46;23.27;;;15.30;;
4756;SDS011;2392;52.578;13.426;2022-11-23T14:06:24;21.60;;;13.70;;
4756;SDS011;2392;52.578;13.426;2022-11-23T14:08:58;24.50;;;13.10;;
4756;SDS011;2392;52.578;13.426;2022-11-23T14:11:29;21.50;;;12.53;;
4756;SDS011;2392;52.578;13.426;2022-11-23T14:14:05;20.47;;;13.03;;
4756;SDS011;2392;52.578;13.426;2022-11-23T14:16:51;22.77;;;12.80;;
4756;SDS011;2392;52.578;13.426;2022-11-23T14:19:37;25.47;;;15.20;;
4756;SDS011;2392;52.578;13.426;2022-11-23T14:22:18;20.40;;;13.53;;
4756;SDS011;2392;52.578;13.426;2022-11-23T14:27:50;27.17;;;14.97;;
4756;SDS011;2392;52.578;13.426;2022-11-23T14:30:29;28.37;;;14.60;;
4756;SDS011;2392;52.578;13.426;2022-11-23T14:33:10;19.63;;;12.90;;
4756;SDS011;2392;52.578;13.426;2022-11-23T14:35:48;23.40;;;14.20;;
4756;SDS011;2392;52.578;13.426;2022-11-23T14:38:47;20.60;;;14.17;;
4756;SDS011;2392;52.578;13.426;2022-11-23T14:41:32;24.33;;;14.80;;
4756;SDS011;2392;52.578;13.426;2022-11-23T14:44:01;30.83;;;16.10;;
4756;SDS011;2392;52.578;13.426;2022-11-23T14:46:30;21.43;;;14.60;;
4756;SDS011;2392;52.578;13.426;2022-11-23T14:49:02;23.47;;;16.53;;
4756;SDS011;2392;52.578;13.426;2022-11-23T14:51:30;29.87;;;17.33;;
4756;SDS011;2392;52.578;13.426;2022-11-23T14:54:01;28.30;;;19.10;;
4756;SDS011;2392;52.578;13.426;2022-11-23T14:56:35;28.90;;;17.57;;
4756;SDS011;2392;52.578;13.426;2022-11-23T14:59:05;30.63;;;17.10;;
4756;SDS011;2392;52.578;13.426;2022-11-23T15:01:34;23.93;;;16.43;;
4756;SDS011;2392;52.578;13.426;2022-11-23T15:04:06;26.73;;;15.83;;
4756;SDS011;2392;52.578;13.426;2022-11-23T15:06:38;28.43;;;16.77;;
4756;SDS011;2392;52.578;13.426;2022-11-23T15:09:13;25.27;;;16.20;;
4756;SDS011;2392;52.578;13.426;2022-11-23T15:11:46;27.70;;;17.80;;
4756;SDS011;2392;52.578;13.426;2022-11-23T15:14:17;25.63;;;17.13;;